This is the latest recevied weather packets stored in our database for station/object SP9KB-13. If no packets are shown the sender has not sent any weather packets the latest 10 day(s).
| Time | Temp. | Humidity | Pressure | Rain* | Wind** | Luminosity | Snow |
|---|---|---|---|---|---|---|---|
| 1777532177 | 5° C | 52% | 1010.4 hPa | 0 mm | - | - | - |
| 1777531877 | 4.44° C | 53% | 1010.4 hPa | 0 mm | - | - | - |
| 1777531576 | 5° C | 52% | 1010.5 hPa | 0 mm | - | - | - |
| 1777531276 | 5° C | 53% | 1010.4 hPa | 0 mm | - | - | - |
| 1777530975 | 4.44° C | 56% | 1010.5 hPa | 0 mm | - | - | - |
| 1777530675 | 4.44° C | 55% | 1010.4 hPa | 0 mm | - | - | - |
| 1777530374 | 3.89° C | 57% | 1010.3 hPa | 0 mm | - | - | - |
| 1777530073 | 3.89° C | 57% | 1010.3 hPa | 0 mm | - | - | - |
| 1777529773 | 3.89° C | 57% | 1010.4 hPa | 0 mm | - | - | - |
| 1777529472 | 3.33° C | 59% | 1010.2 hPa | 0 mm | - | - | - |
| 1777529171 | 3.33° C | 60% | 1010.3 hPa | 0 mm | - | - | - |
| 1777528871 | 2.78° C | 62% | 1010.3 hPa | 0 mm | - | - | - |
| 1777528570 | 2.22° C | 67% | 1010.3 hPa | 0 mm | - | - | - |
| 1777528270 | 2.22° C | 67% | 1010.2 hPa | 0 mm | - | - | - |
| 1777527969 | 2.22° C | 69% | 1010 hPa | 0 mm | - | - | - |
| 1777527668 | 2.22° C | 68% | 1010.4 hPa | 0 mm | - | - | - |
| 1777527368 | 1.11° C | 70% | 1010.3 hPa | 0 mm | - | - | - |
| 1777527067 | 1.11° C | 71% | 1010.2 hPa | 0 mm | - | - | - |
| 1777526767 | 1.11° C | 71% | 1010.3 hPa | 0 mm | - | - | - |
| 1777526466 | 0.56° C | 71% | 1010.3 hPa | 0 mm | - | - | - |
| 1777526165 | 0.56° C | 72% | 1010.6 hPa | 0 mm | - | - | - |
| 1777525865 | 0.56° C | 72% | 1010.4 hPa | 0 mm | - | - | - |
| 1777525564 | -0.56° C | 77% | 1010.4 hPa | 0 mm | - | - | - |
| 1777525264 | -0.56° C | 77% | 1010.3 hPa | 0 mm | - | - | - |
| 1777524963 | -1.67° C | 80% | 1010.4 hPa | 0 mm | - | - | - |
* Rain latest hour (hover to see other rain measurements)
** Current wind speed in m/s (hover to see current wind gust speed)